sensor_id;sensor_type;location;lat;lon;timestamp;P1;durP1;ratioP1;P2;durP2;ratioP2
2406;SDS011;37709;53.480;9.688;2022-11-15T00:01:47;48.83;;;27.00;;
2406;SDS011;37709;53.480;9.688;2022-11-15T00:04:33;55.63;;;27.73;;
2406;SDS011;37709;53.480;9.688;2022-11-15T00:07:19;62.53;;;26.47;;
2406;SDS011;37709;53.480;9.688;2022-11-15T00:10:25;52.47;;;28.37;;
2406;SDS011;37709;53.480;9.688;2022-11-15T00:13:12;38.70;;;24.53;;
2406;SDS011;37709;53.480;9.688;2022-11-15T00:15:59;41.90;;;24.30;;
2406;SDS011;37709;53.480;9.688;2022-11-15T00:18:46;39.77;;;25.87;;
2406;SDS011;37709;53.480;9.688;2022-11-15T00:21:35;45.17;;;26.30;;
2406;SDS011;37709;53.480;9.688;2022-11-15T00:24:21;33.90;;;22.90;;
2406;SDS011;37709;53.480;9.688;2022-11-15T00:27:07;41.13;;;24.67;;
2406;SDS011;37709;53.480;9.688;2022-11-15T00:29:53;38.57;;;24.20;;
2406;SDS011;37709;53.480;9.688;2022-11-15T00:32:39;30.20;;;21.63;;
2406;SDS011;37709;53.480;9.688;2022-11-15T00:35:26;32.40;;;22.70;;
2406;SDS011;37709;53.480;9.688;2022-11-15T00:38:12;32.37;;;20.87;;
2406;SDS011;37709;53.480;9.688;2022-11-15T00:40:58;33.10;;;21.33;;
2406;SDS011;37709;53.480;9.688;2022-11-15T00:43:47;28.17;;;19.80;;
2406;SDS011;37709;53.480;9.688;2022-11-15T00:46:33;28.83;;;20.67;;
2406;SDS011;37709;53.480;9.688;2022-11-15T00:49:18;30.37;;;20.47;;
2406;SDS011;37709;53.480;9.688;2022-11-15T00:52:04;24.43;;;19.47;;
2406;SDS011;37709;53.480;9.688;2022-11-15T00:54:50;25.27;;;19.00;;
2406;SDS011;37709;53.480;9.688;2022-11-15T00:57:36;25.17;;;17.40;;
2406;SDS011;37709;53.480;9.688;2022-11-15T01:00:22;20.10;;;16.03;;
2406;SDS011;37709;53.480;9.688;2022-11-15T01:03:08;23.10;;;18.20;;
2406;SDS011;37709;53.480;9.688;2022-11-15T01:05:58;21.30;;;17.10;;
2406;SDS011;37709;53.480;9.688;2022-11-15T01:08:45;22.07;;;17.00;;
2406;SDS011;37709;53.480;9.688;2022-11-15T01:11:31;20.43;;;15.40;;
2406;SDS011;37709;53.480;9.688;2022-11-15T01:14:17;21.00;;;16.80;;
2406;SDS011;37709;53.480;9.688;2022-11-15T01:17:09;19.60;;;16.10;;
2406;SDS011;37709;53.480;9.688;2022-11-15T01:19:55;19.67;;;14.80;;
2406;SDS011;37709;53.480;9.688;2022-11-15T01:22:41;20.20;;;14.30;;
2406;SDS011;37709;53.480;9.688;2022-11-15T01:25:27;18.30;;;14.97;;
2406;SDS011;37709;53.480;9.688;2022-11-15T01:28:13;18.50;;;14.90;;
2406;SDS011;37709;53.480;9.688;2022-11-15T01:31:00;18.53;;;14.40;;
2406;SDS011;37709;53.480;9.688;2022-11-15T01:33:48;18.43;;;15.07;;
2406;SDS011;37709;53.480;9.688;2022-11-15T01:36:34;19.10;;;15.20;;
2406;SDS011;37709;53.480;9.688;2022-11-15T01:39:20;18.10;;;15.10;;
2406;SDS011;37709;53.480;9.688;2022-11-15T01:42:08;18.57;;;14.73;;
2406;SDS011;37709;53.480;9.688;2022-11-15T01:44:57;16.87;;;13.60;;
2406;SDS011;37709;53.480;9.688;2022-11-15T01:47:44;17.00;;;13.77;;
2406;SDS011;37709;53.480;9.688;2022-11-15T01:50:33;18.90;;;13.90;;
2406;SDS011;37709;53.480;9.688;2022-11-15T01:53:19;17.03;;;14.40;;
2406;SDS011;37709;53.480;9.688;2022-11-15T01:56:09;17.77;;;15.03;;
2406;SDS011;37709;53.480;9.688;2022-11-15T01:58:59;18.07;;;14.57;;
2406;SDS011;37709;53.480;9.688;2022-11-15T02:01:48;16.07;;;13.97;;
2406;SDS011;37709;53.480;9.688;2022-11-15T02:04:36;18.07;;;14.17;;
2406;SDS011;37709;53.480;9.688;2022-11-15T02:07:26;17.40;;;14.43;;
2406;SDS011;37709;53.480;9.688;2022-11-15T02:10:17;17.10;;;13.20;;
2406;SDS011;37709;53.480;9.688;2022-11-15T02:13:05;18.40;;;14.43;;
2406;SDS011;37709;53.480;9.688;2022-11-15T02:15:56;17.10;;;13.63;;
2406;SDS011;37709;53.480;9.688;2022-11-15T02:32:12;18.63;;;13.50;;
2406;SDS011;37709;53.480;9.688;2022-11-15T02:35:16;16.40;;;13.60;;
2406;SDS011;37709;53.480;9.688;2022-11-15T02:38:29;17.40;;;13.17;;
2406;SDS011;37709;53.480;9.688;2022-11-15T02:41:43;21.33;;;14.40;;
2406;SDS011;37709;53.480;9.688;2022-11-15T02:44:41;18.40;;;13.47;;
2406;SDS011;37709;53.480;9.688;2022-11-15T02:47:30;19.70;;;14.13;;
2406;SDS011;37709;53.480;9.688;2022-11-15T02:50:24;20.63;;;14.70;;
2406;SDS011;37709;53.480;9.688;2022-11-15T02:53:14;18.57;;;13.43;;
2406;SDS011;37709;53.480;9.688;2022-11-15T02:56:00;18.80;;;14.20;;
2406;SDS011;37709;53.480;9.688;2022-11-15T02:59:07;18.70;;;13.00;;
2406;SDS011;37709;53.480;9.688;2022-11-15T03:05:04;20.90;;;14.60;;
2406;SDS011;37709;53.480;9.688;2022-11-15T03:08:06;19.53;;;14.63;;
2406;SDS011;37709;53.480;9.688;2022-11-15T03:11:03;19.50;;;13.67;;
2406;SDS011;37709;53.480;9.688;2022-11-15T03:13:56;17.23;;;13.70;;
2406;SDS011;37709;53.480;9.688;2022-11-15T03:17:02;19.07;;;13.00;;
2406;SDS011;37709;53.480;9.688;2022-11-15T03:20:03;17.53;;;14.30;;
2406;SDS011;37709;53.480;9.688;2022-11-15T03:22:51;17.30;;;13.67;;
2406;SDS011;37709;53.480;9.688;2022-11-15T03:25:41;18.93;;;14.90;;
2406;SDS011;37709;53.480;9.688;2022-11-15T03:28:32;18.97;;;13.87;;
2406;SDS011;37709;53.480;9.688;2022-11-15T03:31:22;18.83;;;14.00;;
2406;SDS011;37709;53.480;9.688;2022-11-15T03:34:43;20.97;;;14.67;;
2406;SDS011;37709;53.480;9.688;2022-11-15T03:37:42;19.13;;;13.73;;
2406;SDS011;37709;53.480;9.688;2022-11-15T03:40:41;18.33;;;13.77;;
2406;SDS011;37709;53.480;9.688;2022-11-15T03:43:34;18.20;;;13.83;;
2406;SDS011;37709;53.480;9.688;2022-11-15T03:46:49;19.73;;;14.47;;
2406;SDS011;37709;53.480;9.688;2022-11-15T03:49:38;19.77;;;14.30;;
2406;SDS011;37709;53.480;9.688;2022-11-15T03:52:31;18.40;;;14.20;;
2406;SDS011;37709;53.480;9.688;2022-11-15T03:55:19;23.00;;;14.20;;
2406;SDS011;37709;53.480;9.688;2022-11-15T03:58:06;21.73;;;13.60;;
2406;SDS011;37709;53.480;9.688;2022-11-15T04:00:52;17.97;;;14.40;;
2406;SDS011;37709;53.480;9.688;2022-11-15T04:03:38;19.50;;;13.40;;
2406;SDS011;37709;53.480;9.688;2022-11-15T04:06:24;18.33;;;14.40;;
2406;SDS011;37709;53.480;9.688;2022-11-15T04:09:10;24.93;;;14.07;;
2406;SDS011;37709;53.480;9.688;2022-11-15T04:11:56;18.83;;;14.40;;
2406;SDS011;37709;53.480;9.688;2022-11-15T04:14:42;20.20;;;15.00;;
2406;SDS011;37709;53.480;9.688;2022-11-15T04:17:49;18.43;;;14.50;;
2406;SDS011;37709;53.480;9.688;2022-11-15T04:20:36;19.60;;;14.00;;
2406;SDS011;37709;53.480;9.688;2022-11-15T04:23:41;18.83;;;14.73;;
2406;SDS011;37709;53.480;9.688;2022-11-15T04:26:46;20.17;;;13.90;;
2406;SDS011;37709;53.480;9.688;2022-11-15T04:29:32;17.53;;;14.33;;
2406;SDS011;37709;53.480;9.688;2022-11-15T04:32:21;19.07;;;15.80;;
2406;SDS011;37709;53.480;9.688;2022-11-15T04:35:07;22.63;;;14.40;;
2406;SDS011;37709;53.480;9.688;2022-11-15T04:37:54;20.43;;;13.70;;
2406;SDS011;37709;53.480;9.688;2022-11-15T04:40:40;21.40;;;14.83;;
2406;SDS011;37709;53.480;9.688;2022-11-15T04:43:26;16.57;;;12.97;;
2406;SDS011;37709;53.480;9.688;2022-11-15T04:46:13;16.23;;;13.60;;
2406;SDS011;37709;53.480;9.688;2022-11-15T04:48:59;20.03;;;13.53;;
2406;SDS011;37709;53.480;9.688;2022-11-15T04:51:48;15.80;;;12.63;;
2406;SDS011;37709;53.480;9.688;2022-11-15T04:54:33;18.60;;;13.67;;
2406;SDS011;37709;53.480;9.688;2022-11-15T04:57:20;17.07;;;13.60;;
2406;SDS011;37709;53.480;9.688;2022-11-15T05:00:07;17.13;;;12.60;;
2406;SDS011;37709;53.480;9.688;2022-11-15T05:02:56;15.40;;;13.03;;
2406;SDS011;37709;53.480;9.688;2022-11-15T05:06:02;17.83;;;13.33;;
2406;SDS011;37709;53.480;9.688;2022-11-15T05:08:48;16.80;;;13.67;;
2406;SDS011;37709;53.480;9.688;2022-11-15T05:11:34;17.50;;;13.13;;
2406;SDS011;37709;53.480;9.688;2022-11-15T05:14:20;14.07;;;12.20;;
2406;SDS011;37709;53.480;9.688;2022-11-15T05:17:06;18.48;;;14.10;;
2406;SDS011;37709;53.480;9.688;2022-11-15T05:19:51;16.87;;;12.57;;
2406;SDS011;37709;53.480;9.688;2022-11-15T05:22:37;19.30;;;13.70;;
2406;SDS011;37709;53.480;9.688;2022-11-15T05:25:24;16.47;;;12.63;;
2406;SDS011;37709;53.480;9.688;2022-11-15T05:28:10;16.30;;;13.30;;
2406;SDS011;37709;53.480;9.688;2022-11-15T05:31:02;16.57;;;14.30;;
2406;SDS011;37709;53.480;9.688;2022-11-15T05:33:50;20.77;;;15.93;;
2406;SDS011;37709;53.480;9.688;2022-11-15T05:36:38;24.27;;;17.70;;
2406;SDS011;37709;53.480;9.688;2022-11-15T05:39:28;25.40;;;16.23;;
2406;SDS011;37709;53.480;9.688;2022-11-15T05:42:14;22.67;;;16.83;;
2406;SDS011;37709;53.480;9.688;2022-11-15T05:45:02;23.27;;;17.60;;
2406;SDS011;37709;53.480;9.688;2022-11-15T05:47:51;23.47;;;18.30;;
2406;SDS011;37709;53.480;9.688;2022-11-15T05:50:41;22.03;;;17.03;;
2406;SDS011;37709;53.480;9.688;2022-11-15T05:53:31;22.80;;;17.13;;
2406;SDS011;37709;53.480;9.688;2022-11-15T05:56:18;24.23;;;18.77;;
2406;SDS011;37709;53.480;9.688;2022-11-15T05:59:04;26.37;;;17.63;;
2406;SDS011;37709;53.480;9.688;2022-11-15T06:01:50;22.33;;;17.97;;
2406;SDS011;37709;53.480;9.688;2022-11-15T06:04:36;21.90;;;17.23;;
2406;SDS011;37709;53.480;9.688;2022-11-15T06:07:22;29.50;;;24.75;;
2406;SDS011;37709;53.480;9.688;2022-11-15T06:10:08;26.60;;;20.90;;
2406;SDS011;37709;53.480;9.688;2022-11-15T06:13:01;26.57;;;20.27;;
2406;SDS011;37709;53.480;9.688;2022-11-15T06:15:48;23.67;;;18.60;;
2406;SDS011;37709;53.480;9.688;2022-11-15T06:18:35;28.50;;;20.23;;
2406;SDS011;37709;53.480;9.688;2022-11-15T06:21:21;24.03;;;19.37;;
2406;SDS011;37709;53.480;9.688;2022-11-15T06:24:07;23.37;;;18.67;;
2406;SDS011;37709;53.480;9.688;2022-11-15T06:26:53;22.63;;;17.90;;
2406;SDS011;37709;53.480;9.688;2022-11-15T06:29:39;23.40;;;18.03;;
2406;SDS011;37709;53.480;9.688;2022-11-15T06:32:25;23.40;;;18.40;;
2406;SDS011;37709;53.480;9.688;2022-11-15T06:35:12;31.63;;;20.30;;
2406;SDS011;37709;53.480;9.688;2022-11-15T06:38:05;23.90;;;18.10;;
2406;SDS011;37709;53.480;9.688;2022-11-15T06:40:53;20.60;;;16.63;;
2406;SDS011;37709;53.480;9.688;2022-11-15T06:43:40;20.53;;;17.73;;
2406;SDS011;37709;53.480;9.688;2022-11-15T06:46:26;20.50;;;17.20;;
2406;SDS011;37709;53.480;9.688;2022-11-15T06:49:14;21.93;;;18.00;;
2406;SDS011;37709;53.480;9.688;2022-11-15T06:52:00;21.20;;;17.60;;
2406;SDS011;37709;53.480;9.688;2022-11-15T06:54:46;23.17;;;18.00;;
2406;SDS011;37709;53.480;9.688;2022-11-15T06:57:32;21.40;;;17.63;;
2406;SDS011;37709;53.480;9.688;2022-11-15T07:00:19;21.90;;;17.60;;
2406;SDS011;37709;53.480;9.688;2022-11-15T07:03:06;21.87;;;17.20;;
2406;SDS011;37709;53.480;9.688;2022-11-15T07:05:53;22.10;;;16.70;;
2406;SDS011;37709;53.480;9.688;2022-11-15T07:08:40;20.07;;;16.70;;
2406;SDS011;37709;53.480;9.688;2022-11-15T07:11:27;19.87;;;15.87;;
2406;SDS011;37709;53.480;9.688;2022-11-15T07:14:13;22.87;;;16.87;;
2406;SDS011;37709;53.480;9.688;2022-11-15T07:16:58;19.40;;;16.03;;
2406;SDS011;37709;53.480;9.688;2022-11-15T07:19:44;21.43;;;14.83;;
2406;SDS011;37709;53.480;9.688;2022-11-15T07:22:30;18.87;;;15.27;;
2406;SDS011;37709;53.480;9.688;2022-11-15T07:25:16;23.37;;;16.50;;
2406;SDS011;37709;53.480;9.688;2022-11-15T07:28:03;18.93;;;15.43;;
2406;SDS011;37709;53.480;9.688;2022-11-15T07:30:49;21.80;;;17.30;;
2406;SDS011;37709;53.480;9.688;2022-11-15T07:33:35;19.37;;;15.80;;
2406;SDS011;37709;53.480;9.688;2022-11-15T07:36:21;19.00;;;15.93;;
2406;SDS011;37709;53.480;9.688;2022-11-15T07:39:07;18.40;;;15.13;;
2406;SDS011;37709;53.480;9.688;2022-11-15T07:41:53;16.73;;;14.47;;
2406;SDS011;37709;53.480;9.688;2022-11-15T07:44:59;19.13;;;16.20;;
2406;SDS011;37709;53.480;9.688;2022-11-15T07:47:45;19.43;;;15.90;;
2406;SDS011;37709;53.480;9.688;2022-11-15T07:50:34;18.23;;;14.73;;
2406;SDS011;37709;53.480;9.688;2022-11-15T07:53:20;17.63;;;15.23;;
2406;SDS011;37709;53.480;9.688;2022-11-15T07:56:06;17.73;;;14.73;;
2406;SDS011;37709;53.480;9.688;2022-11-15T07:58:53;19.53;;;15.87;;
2406;SDS011;37709;53.480;9.688;2022-11-15T08:01:39;17.53;;;14.57;;
2406;SDS011;37709;53.480;9.688;2022-11-15T08:04:25;16.93;;;14.47;;
2406;SDS011;37709;53.480;9.688;2022-11-15T08:07:11;17.67;;;13.30;;
2406;SDS011;37709;53.480;9.688;2022-11-15T08:09:57;16.03;;;13.60;;
2406;SDS011;37709;53.480;9.688;2022-11-15T08:12:44;18.70;;;14.93;;
2406;SDS011;37709;53.480;9.688;2022-11-15T08:15:30;17.83;;;14.00;;
2406;SDS011;37709;53.480;9.688;2022-11-15T08:18:17;17.40;;;13.53;;
2406;SDS011;37709;53.480;9.688;2022-11-15T08:21:03;17.20;;;14.27;;
2406;SDS011;37709;53.480;9.688;2022-11-15T08:23:49;16.77;;;14.40;;
2406;SDS011;37709;53.480;9.688;2022-11-15T08:26:35;17.33;;;14.63;;
2406;SDS011;37709;53.480;9.688;2022-11-15T08:29:21;16.63;;;13.80;;
2406;SDS011;37709;53.480;9.688;2022-11-15T08:32:08;16.20;;;14.33;;
2406;SDS011;37709;53.480;9.688;2022-11-15T08:34:54;16.73;;;13.73;;
2406;SDS011;37709;53.480;9.688;2022-11-15T08:37:40;15.43;;;12.70;;
2406;SDS011;37709;53.480;9.688;2022-11-15T08:40:27;16.90;;;14.37;;
2406;SDS011;37709;53.480;9.688;2022-11-15T08:43:12;14.87;;;13.27;;
2406;SDS011;37709;53.480;9.688;2022-11-15T08:45:58;13.67;;;12.27;;
2406;SDS011;37709;53.480;9.688;2022-11-15T08:48:44;14.20;;;12.60;;
2406;SDS011;37709;53.480;9.688;2022-11-15T08:51:30;15.07;;;13.50;;
2406;SDS011;37709;53.480;9.688;2022-11-15T08:54:16;15.97;;;13.83;;
2406;SDS011;37709;53.480;9.688;2022-11-15T08:57:02;14.20;;;12.30;;
2406;SDS011;37709;53.480;9.688;2022-11-15T08:59:48;13.63;;;12.13;;
2406;SDS011;37709;53.480;9.688;2022-11-15T09:02:34;14.30;;;12.80;;
2406;SDS011;37709;53.480;9.688;2022-11-15T09:05:19;17.17;;;13.37;;
2406;SDS011;37709;53.480;9.688;2022-11-15T09:08:05;14.53;;;13.07;;
2406;SDS011;37709;53.480;9.688;2022-11-15T09:11:11;13.77;;;12.37;;
2406;SDS011;37709;53.480;9.688;2022-11-15T09:13:58;16.43;;;13.20;;
2406;SDS011;37709;53.480;9.688;2022-11-15T09:16:44;13.80;;;12.43;;
2406;SDS011;37709;53.480;9.688;2022-11-15T09:19:33;14.63;;;13.23;;
2406;SDS011;37709;53.480;9.688;2022-11-15T09:22:19;15.07;;;13.57;;
2406;SDS011;37709;53.480;9.688;2022-11-15T09:25:05;16.40;;;13.27;;
2406;SDS011;37709;53.480;9.688;2022-11-15T09:27:55;14.87;;;13.33;;
2406;SDS011;37709;53.480;9.688;2022-11-15T09:30:42;14.17;;;12.43;;
2406;SDS011;37709;53.480;9.688;2022-11-15T09:33:28;14.07;;;12.67;;
2406;SDS011;37709;53.480;9.688;2022-11-15T09:36:15;12.93;;;11.73;;
2406;SDS011;37709;53.480;9.688;2022-11-15T09:39:02;12.50;;;11.30;;
2406;SDS011;37709;53.480;9.688;2022-11-15T09:41:55;13.43;;;11.17;;
2406;SDS011;37709;53.480;9.688;2022-11-15T09:44:56;13.40;;;10.53;;
2406;SDS011;37709;53.480;9.688;2022-11-15T09:47:57;11.97;;;10.80;;
2406;SDS011;37709;53.480;9.688;2022-11-15T09:50:59;12.10;;;10.77;;
2406;SDS011;37709;53.480;9.688;2022-11-15T09:53:32;11.80;;;10.60;;
2406;SDS011;37709;53.480;9.688;2022-11-15T09:56:26;12.17;;;10.87;;
2406;SDS011;37709;53.480;9.688;2022-11-15T09:59:02;12.27;;;11.20;;
2406;SDS011;37709;53.480;9.688;2022-11-15T10:01:49;12.00;;;10.90;;
2406;SDS011;37709;53.480;9.688;2022-11-15T10:04:36;13.13;;;11.83;;
2406;SDS011;37709;53.480;9.688;2022-11-15T10:07:06;13.40;;;12.10;;
2406;SDS011;37709;53.480;9.688;2022-11-15T10:09:49;13.40;;;12.00;;
2406;SDS011;37709;53.480;9.688;2022-11-15T10:12:20;12.80;;;11.50;;
2406;SDS011;37709;53.480;9.688;2022-11-15T10:14:48;13.10;;;11.73;;
2406;SDS011;37709;53.480;9.688;2022-11-15T10:17:27;11.77;;;10.57;;
2406;SDS011;37709;53.480;9.688;2022-11-15T10:20:20;10.80;;;9.60;;
2406;SDS011;37709;53.480;9.688;2022-11-15T10:22:50;10.90;;;9.90;;
2406;SDS011;37709;53.480;9.688;2022-11-15T10:30:22;8.97;;;7.07;;
2406;SDS011;37709;53.480;9.688;2022-11-15T10:32:56;7.53;;;6.20;;
2406;SDS011;37709;53.480;9.688;2022-11-15T10:35:25;7.37;;;6.67;;
2406;SDS011;37709;53.480;9.688;2022-11-15T10:38:05;6.30;;;5.80;;
2406;SDS011;37709;53.480;9.688;2022-11-15T10:40:34;6.87;;;6.20;;
2406;SDS011;37709;53.480;9.688;2022-11-15T10:45:36;7.83;;;6.87;;
2406;SDS011;37709;53.480;9.688;2022-11-15T10:50:44;10.68;;;9.57;;
2406;SDS011;37709;53.480;9.688;2022-11-15T10:53:19;8.70;;;7.93;;
2406;SDS011;37709;53.480;9.688;2022-11-15T10:56:03;8.97;;;7.67;;
2406;SDS011;37709;53.480;9.688;2022-11-15T10:58:37;8.10;;;7.40;;
2406;SDS011;37709;53.480;9.688;2022-11-15T11:01:22;8.83;;;7.73;;
2406;SDS011;37709;53.480;9.688;2022-11-15T11:04:03;8.27;;;6.90;;
2406;SDS011;37709;53.480;9.688;2022-11-15T11:06:45;8.47;;;7.20;;
2406;SDS011;37709;53.480;9.688;2022-11-15T11:09:32;7.63;;;7.00;;
2406;SDS011;37709;53.480;9.688;2022-11-15T11:12:05;7.23;;;6.57;;
2406;SDS011;37709;53.480;9.688;2022-11-15T11:14:37;8.40;;;7.17;;
2406;SDS011;37709;53.480;9.688;2022-11-15T11:19:58;11.07;;;9.90;;
2406;SDS011;37709;53.480;9.688;2022-11-15T11:22:34;11.13;;;9.93;;
2406;SDS011;37709;53.480;9.688;2022-11-15T11:28:26;11.13;;;10.03;;
2406;SDS011;37709;53.480;9.688;2022-11-15T11:42:34;11.17;;;9.20;;
2406;SDS011;37709;53.480;9.688;2022-11-15T11:47:32;9.70;;;8.80;;
2406;SDS011;37709;53.480;9.688;2022-11-15T11:50:18;9.50;;;8.60;;
2406;SDS011;37709;53.480;9.688;2022-11-15T11:55:43;11.50;;;8.57;;
2406;SDS011;37709;53.480;9.688;2022-11-15T11:58:17;9.57;;;8.57;;
2406;SDS011;37709;53.480;9.688;2022-11-15T12:00:51;8.67;;;7.87;;
2406;SDS011;37709;53.480;9.688;2022-11-15T12:09:31;6.60;;;6.00;;
2406;SDS011;37709;53.480;9.688;2022-11-15T12:12:23;7.83;;;7.03;;
2406;SDS011;37709;53.480;9.688;2022-11-15T12:14:57;6.90;;;6.30;;
2406;SDS011;37709;53.480;9.688;2022-11-15T12:17:39;6.30;;;5.73;;
2406;SDS011;37709;53.480;9.688;2022-11-15T12:22:47;5.07;;;4.57;;
2406;SDS011;37709;53.480;9.688;2022-11-15T12:25:46;5.17;;;4.67;;
2406;SDS011;37709;53.480;9.688;2022-11-15T12:28:26;5.30;;;4.00;;
2406;SDS011;37709;53.480;9.688;2022-11-15T12:33:58;4.63;;;4.23;;
2406;SDS011;37709;53.480;9.688;2022-11-15T12:36:37;5.60;;;5.00;;
2406;SDS011;37709;53.480;9.688;2022-11-15T12:39:10;6.27;;;4.83;;
2406;SDS011;37709;53.480;9.688;2022-11-15T12:41:39;4.10;;;3.60;;
2406;SDS011;37709;53.480;9.688;2022-11-15T12:44:12;5.00;;;4.50;;
2406;SDS011;37709;53.480;9.688;2022-11-15T12:47:02;4.60;;;4.20;;
2406;SDS011;37709;53.480;9.688;2022-11-15T12:49:49;4.80;;;4.07;;
2406;SDS011;37709;53.480;9.688;2022-11-15T12:52:16;5.47;;;4.68;;
2406;SDS011;37709;53.480;9.688;2022-11-15T12:54:57;5.17;;;4.60;;
2406;SDS011;37709;53.480;9.688;2022-11-15T12:57:28;5.00;;;4.60;;
2406;SDS011;37709;53.480;9.688;2022-11-15T12:59:58;4.57;;;4.17;;
2406;SDS011;37709;53.480;9.688;2022-11-15T13:02:33;4.53;;;4.13;;
2406;SDS011;37709;53.480;9.688;2022-11-15T13:17:44;4.80;;;4.40;;
2406;SDS011;37709;53.480;9.688;2022-11-15T13:33:17;5.57;;;4.57;;
2406;SDS011;37709;53.480;9.688;2022-11-15T13:35:49;7.13;;;3.90;;
2406;SDS011;37709;53.480;9.688;2022-11-15T13:38:27;4.97;;;4.00;;
2406;SDS011;37709;53.480;9.688;2022-11-15T13:40:57;5.53;;;4.47;;
2406;SDS011;37709;53.480;9.688;2022-11-15T13:43:27;7.33;;;3.60;;
2406;SDS011;37709;53.480;9.688;2022-11-15T13:46:04;4.50;;;4.10;;
2406;SDS011;37709;53.480;9.688;2022-11-15T13:48:38;4.50;;;4.10;;
2406;SDS011;37709;53.480;9.688;2022-11-15T13:53:44;4.30;;;3.90;;
2406;SDS011;37709;53.480;9.688;2022-11-15T13:56:16;5.80;;;4.40;;
2406;SDS011;37709;53.480;9.688;2022-11-15T13:58:45;5.33;;;4.80;;
2406;SDS011;37709;53.480;9.688;2022-11-15T14:01:14;4.63;;;4.13;;
2406;SDS011;37709;53.480;9.688;2022-11-15T14:03:50;5.43;;;4.93;;
2406;SDS011;37709;53.480;9.688;2022-11-15T14:06:21;5.77;;;5.07;;
2406;SDS011;37709;53.480;9.688;2022-11-15T14:11:30;5.53;;;4.17;;
2406;SDS011;37709;53.480;9.688;2022-11-15T14:19:03;4.67;;;4.27;;
2406;SDS011;37709;53.480;9.688;2022-11-15T14:21:31;4.37;;;3.97;;
2406;SDS011;37709;53.480;9.688;2022-11-15T14:24:16;4.53;;;4.13;;
2406;SDS011;37709;53.480;9.688;2022-11-15T14:26:48;5.93;;;5.17;;
2406;SDS011;37709;53.480;9.688;2022-11-15T14:29:22;5.60;;;4.50;;
2406;SDS011;37709;53.480;9.688;2022-11-15T14:32:17;6.37;;;5.20;;
2406;SDS011;37709;53.480;9.688;2022-11-15T14:34:41;6.57;;;5.00;;
2406;SDS011;37709;53.480;9.688;2022-11-15T14:37:16;5.30;;;4.80;;
2406;SDS011;37709;53.480;9.688;2022-11-15T14:39:48;6.13;;;4.93;;
2406;SDS011;37709;53.480;9.688;2022-11-15T14:42:15;5.27;;;4.77;;
2406;SDS011;37709;53.480;9.688;2022-11-15T14:44:43;8.27;;;5.50;;
2406;SDS011;37709;53.480;9.688;2022-11-15T14:47:12;6.40;;;5.80;;
2406;SDS011;37709;53.480;9.688;2022-11-15T14:49:40;6.83;;;5.50;;
2406;SDS011;37709;53.480;9.688;2022-11-15T14:52:11;6.40;;;5.30;;
2406;SDS011;37709;53.480;9.688;2022-11-15T14:54:46;6.90;;;5.50;;
2406;SDS011;37709;53.480;9.688;2022-11-15T14:57:13;6.97;;;5.57;;
2406;SDS011;37709;53.480;9.688;2022-11-15T14:59:40;6.07;;;5.57;;
2406;SDS011;37709;53.480;9.688;2022-11-15T15:02:13;6.03;;;5.53;;
2406;SDS011;37709;53.480;9.688;2022-11-15T15:04:43;6.72;;;6.00;;
2406;SDS011;37709;53.480;9.688;2022-11-15T15:07:10;7.80;;;6.37;;
2406;SDS011;37709;53.480;9.688;2022-11-15T15:09:38;6.90;;;6.20;;
2406;SDS011;37709;53.480;9.688;2022-11-15T15:12:11;7.73;;;6.30;;
2406;SDS011;37709;53.480;9.688;2022-11-15T15:14:45;6.20;;;5.60;;
2406;SDS011;37709;53.480;9.688;2022-11-15T15:17:13;6.87;;;6.27;;
2406;SDS011;37709;53.480;9.688;2022-11-15T15:19:41;6.53;;;5.83;;
2406;SDS011;37709;53.480;9.688;2022-11-15T15:22:10;7.20;;;6.50;;
2406;SDS011;37709;53.480;9.688;2022-11-15T15:24:41;7.73;;;6.30;;
2406;SDS011;37709;53.480;9.688;2022-11-15T15:27:09;8.83;;;7.03;;
2406;SDS011;37709;53.480;9.688;2022-11-15T15:29:36;7.43;;;6.50;;
2406;SDS011;37709;53.480;9.688;2022-11-15T15:32:04;8.50;;;6.87;;
2406;SDS011;37709;53.480;9.688;2022-11-15T15:34:32;8.27;;;7.37;;
2406;SDS011;37709;53.480;9.688;2022-11-15T15:39:52;9.40;;;7.40;;
2406;SDS011;37709;53.480;9.688;2022-11-15T15:42:23;9.70;;;6.97;;
2406;SDS011;37709;53.480;9.688;2022-11-15T15:44:50;8.13;;;7.33;;
2406;SDS011;37709;53.480;9.688;2022-11-15T15:47:22;9.20;;;7.87;;
2406;SDS011;37709;53.480;9.688;2022-11-15T15:49:50;9.27;;;8.37;;
2406;SDS011;37709;53.480;9.688;2022-11-15T15:52:17;9.50;;;8.27;;
2406;SDS011;37709;53.480;9.688;2022-11-15T15:54:44;8.70;;;7.70;;
2406;SDS011;37709;53.480;9.688;2022-11-15T15:57:12;8.90;;;8.00;;
2406;SDS011;37709;53.480;9.688;2022-11-15T15:59:40;10.50;;;9.07;;
2406;SDS011;37709;53.480;9.688;2022-11-15T16:02:09;9.20;;;8.33;;
2406;SDS011;37709;53.480;9.688;2022-11-15T16:04:42;9.50;;;8.70;;
2406;SDS011;37709;53.480;9.688;2022-11-15T16:07:17;9.87;;;8.33;;
2406;SDS011;37709;53.480;9.688;2022-11-15T16:09:49;9.50;;;8.60;;
2406;SDS011;37709;53.480;9.688;2022-11-15T16:12:31;8.67;;;7.87;;
2406;SDS011;37709;53.480;9.688;2022-11-15T16:15:00;9.80;;;8.90;;
2406;SDS011;37709;53.480;9.688;2022-11-15T16:17:33;8.83;;;7.70;;
2406;SDS011;37709;53.480;9.688;2022-11-15T16:20:06;9.63;;;8.20;;
2406;SDS011;37709;53.480;9.688;2022-11-15T16:22:45;8.70;;;7.80;;
2406;SDS011;37709;53.480;9.688;2022-11-15T16:25:13;9.20;;;7.70;;
2406;SDS011;37709;53.480;9.688;2022-11-15T16:27:40;10.43;;;8.50;;
2406;SDS011;37709;53.480;9.688;2022-11-15T16:30:15;8.90;;;7.93;;
2406;SDS011;37709;53.480;9.688;2022-11-15T16:32:43;8.73;;;7.93;;
2406;SDS011;37709;53.480;9.688;2022-11-15T16:35:11;8.83;;;7.80;;
2406;SDS011;37709;53.480;9.688;2022-11-15T16:37:39;9.27;;;8.37;;
2406;SDS011;37709;53.480;9.688;2022-11-15T16:40:15;10.67;;;8.80;;
2406;SDS011;37709;53.480;9.688;2022-11-15T16:42:52;9.40;;;8.40;;
2406;SDS011;37709;53.480;9.688;2022-11-15T16:45:22;9.47;;;8.47;;
2406;SDS011;37709;53.480;9.688;2022-11-15T16:47:52;9.60;;;8.60;;
2406;SDS011;37709;53.480;9.688;2022-11-15T16:50:21;11.40;;;8.90;;
2406;SDS011;37709;53.480;9.688;2022-11-15T16:52:52;10.17;;;9.10;;
2406;SDS011;37709;53.480;9.688;2022-11-15T16:55:21;9.60;;;8.77;;
2406;SDS011;37709;53.480;9.688;2022-11-15T16:57:51;10.30;;;9.20;;
2406;SDS011;37709;53.480;9.688;2022-11-15T17:00:18;10.10;;;9.10;;
2406;SDS011;37709;53.480;9.688;2022-11-15T17:02:47;10.30;;;9.20;;
2406;SDS011;37709;53.480;9.688;2022-11-15T17:05:16;11.90;;;9.53;;
2406;SDS011;37709;53.480;9.688;2022-11-15T17:07:49;9.77;;;8.60;;
2406;SDS011;37709;53.480;9.688;2022-11-15T17:10:21;11.00;;;8.10;;
2406;SDS011;37709;53.480;9.688;2022-11-15T17:12:49;10.50;;;8.70;;
2406;SDS011;37709;53.480;9.688;2022-11-15T17:15:16;10.50;;;8.73;;
2406;SDS011;37709;53.480;9.688;2022-11-15T17:17:45;10.10;;;9.10;;
2406;SDS011;37709;53.480;9.688;2022-11-15T17:20:21;10.60;;;9.23;;
2406;SDS011;37709;53.480;9.688;2022-11-15T17:22:50;9.83;;;8.93;;
2406;SDS011;37709;53.480;9.688;2022-11-15T17:25:18;10.67;;;9.67;;
2406;SDS011;37709;53.480;9.688;2022-11-15T17:27:46;12.67;;;9.13;;
2406;SDS011;37709;53.480;9.688;2022-11-15T17:30:13;10.30;;;9.30;;
2406;SDS011;37709;53.480;9.688;2022-11-15T17:32:42;10.40;;;9.33;;
2406;SDS011;37709;53.480;9.688;2022-11-15T17:35:10;10.63;;;9.53;;
2406;SDS011;37709;53.480;9.688;2022-11-15T17:37:42;11.40;;;10.30;;
2406;SDS011;37709;53.480;9.688;2022-11-15T17:40:09;13.30;;;10.43;;
2406;SDS011;37709;53.480;9.688;2022-11-15T17:42:39;11.20;;;10.10;;
2406;SDS011;37709;53.480;9.688;2022-11-15T17:45:08;11.43;;;10.30;;
2406;SDS011;37709;53.480;9.688;2022-11-15T17:47:36;11.73;;;8.93;;
2406;SDS011;37709;53.480;9.688;2022-11-15T17:50:04;9.63;;;8.70;;
2406;SDS011;37709;53.480;9.688;2022-11-15T17:52:31;11.13;;;9.80;;